Time;durP1;ratioP1;P1;durP2;ratioP2;P2;SDS_P1;SDS_P2;PMS_P1;PMS_P2;Temp;Humidity;BMP_temperature;BMP_pressure;BME280_temperature;BME280_humidity;BME280_pressure;Samples;Min_cycle;Max_cycle;Signal;HPM_P1;HPM_P2
2022/01/04 00:00:56;;;;;;;23.65;12.90;;;;;;;9.48;100.00;99001.06;5099284;28;20123;-93
2022/01/04 00:03:23;;;;;;;21.77;11.52;;;;;;;9.38;100.00;98981.78;5099790;28;20460;-95
2022/01/04 00:05:49;;;;;;;18.52;11.20;;;;;;;9.36;100.00;98970.31;5099352;28;20048;-93
2022/01/04 00:08:23;;;;;;;21.73;11.35;;;;;;;9.51;100.00;99003.66;5100472;28;20093;-94
2022/01/04 00:10:49;;;;;;;21.10;11.52;;;;;;;9.33;100.00;98968.59;5100542;28;20040;-94
2022/01/04 00:20:11;;;;;;;17.00;9.70;;;;;;;9.40;100.00;98959.63;5118292;28;20043;-94
2022/01/04 00:22:37;;;;;;;22.60;11.10;;;;;;;9.40;100.00;98958.75;5117630;28;20043;-94
2022/01/04 00:25:12;;;;;;;20.67;11.88;;;;;;;9.54;100.00;98979.72;5117241;28;20040;-94
2022/01/04 00:27:44;;;;;;;26.15;11.82;;;;;;;9.53;100.00;98986.81;5118391;28;20099;-94
2022/01/04 00:30:17;;;;;;;18.83;10.95;;;;;;;9.49;100.00;98965.66;5118195;28;20048;-94
2022/01/04 00:32:44;;;;;;;17.08;11.02;;;;;;;9.34;100.00;98937.63;5117743;28;20040;-94
2022/01/04 00:35:12;;;;;;;18.02;10.90;;;;;;;9.33;100.00;98942.06;5117601;28;20069;-94
2022/01/04 00:37:38;;;;;;;19.05;11.25;;;;;;;9.40;100.00;98949.00;5116173;28;20055;-95
2022/01/04 00:40:06;;;;;;;23.20;11.32;;;;;;;9.32;100.00;98940.31;5116609;28;20043;-95
2022/01/04 00:42:32;;;;;;;22.65;11.07;;;;;;;9.30;100.00;98934.16;5117967;28;20516;-94
2022/01/04 00:51:01;;;;;;;20.70;11.40;;;;;;;9.37;100.00;98953.50;5096846;28;20413;-95
2022/01/04 00:53:27;;;;;;;21.40;10.93;;;;;;;9.29;100.00;98936.84;5097531;28;20052;-93
2022/01/04 00:55:53;;;;;;;21.67;12.32;;;;;;;9.39;100.00;98965.84;5096355;28;20072;-94
2022/01/04 00:58:21;;;;;;;19.00;10.95;;;;;;;9.37;100.00;98937.59;5096409;28;20044;-95
2022/01/04 01:04:12;;;;;;;22.48;10.75;;;;;;;9.38;100.00;98957.91;5096346;28;20036;-94
2022/01/04 01:06:40;;;;;;;21.23;10.65;;;;;;;9.34;100.00;98949.13;5096658;28;20389;-93
2022/01/04 01:09:06;;;;;;;24.55;11.18;;;;;;;9.28;100.00;98938.63;5095922;28;20044;-94
2022/01/04 01:11:32;;;;;;;19.15;10.05;;;;;;;9.37;100.00;98969.44;5093966;28;20044;-94
2022/01/04 01:13:59;;;;;;;15.43;9.68;;;;;;;9.33;100.00;98950.03;5094875;28;20076;-94
2022/01/04 01:19:52;;;;;;;16.05;9.85;;;;;;;9.35;100.00;98944.72;5097484;28;20531;-93
2022/01/04 01:22:22;;;;;;;19.20;10.77;;;;;;;9.49;100.00;98973.63;5096417;28;20067;-93
2022/01/04 01:24:51;;;;;;;22.48;11.13;;;;;;;9.41;100.00;98950.75;5097175;28;20036;-95
2022/01/04 01:27:18;;;;;;;20.00;10.55;;;;;;;9.35;100.00;98939.41;5096072;28;20040;-94
2022/01/04 01:29:44;;;;;;;17.92;10.85;;;;;;;9.38;100.00;98944.63;5096858;28;20041;-94
2022/01/04 01:35:33;;;;;;;20.70;10.77;;;;;;;9.39;100.00;98941.06;5096838;28;20087;-95
2022/01/04 01:38:01;;;;;;;23.80;10.43;;;;;;;9.41;100.00;98933.94;5096745;28;20033;-94
2022/01/04 01:40:27;;;;;;;16.33;9.73;;;;;;;9.41;100.00;98933.94;5096730;28;20068;-95
2022/01/04 01:42:53;;;;;;;17.50;10.30;;;;;;;9.30;100.00;98912.91;5097146;28;20084;-94
2022/01/04 01:45:21;;;;;;;19.08;10.05;;;;;;;9.38;100.00;98923.41;5096802;28;20048;-93
2022/01/04 01:47:48;;;;;;;20.35;10.32;;;;;;;9.37;100.00;98924.31;5095633;28;20040;-95
2022/01/04 01:50:19;;;;;;;17.35;9.52;;;;;;;9.28;100.00;98922.69;5096238;28;20060;-94
2022/01/04 01:52:47;;;;;;;17.95;9.90;;;;;;;9.48;100.00;98953.28;5096911;28;20068;-94
2022/01/04 01:55:18;;;;;;;19.40;10.63;;;;;;;9.48;100.00;98946.22;5096062;28;20048;-95
2022/01/04 01:57:45;;;;;;;24.60;10.70;;;;;;;9.31;100.00;98927.09;5096239;28;20486;-93
2022/01/04 02:03:58;;;;;;;17.30;10.30;;;;;;;9.46;100.00;98954.19;5082998;28;20036;-94
2022/01/04 02:06:29;;;;;;;17.35;9.65;;;;;;;9.25;100.00;98918.31;5082683;28;20494;-96
2022/01/04 02:08:57;;;;;;;18.80;10.65;;;;;;;9.25;100.00;98910.38;5082630;28;20064;-95
2022/01/04 02:11:28;;;;;;;19.95;10.65;;;;;;;9.28;100.00;98921.81;5083258;28;20041;-95
2022/01/04 02:13:54;;;;;;;16.55;10.05;;;;;;;9.22;100.00;98905.13;5082703;28;20112;-94
2022/01/04 02:19:43;;;;;;;17.17;10.55;;;;;;;9.24;100.00;98887.41;5083388;28;20032;-95
2022/01/04 02:22:09;;;;;;;29.73;10.90;;;;;;;9.28;100.00;98890.84;5081778;28;20045;-93
2022/01/04 02:24:35;;;;;;;22.17;10.98;;;;;;;9.21;100.00;98895.41;5081945;28;20070;-95
2022/01/04 02:27:02;;;;;;;20.50;10.73;;;;;;;9.23;100.00;98888.28;5081638;28;20032;-93
2022/01/04 02:29:28;;;;;;;22.38;10.88;;;;;;;9.28;100.00;98895.28;5080860;28;20040;-94
2022/01/04 02:35:23;;;;;;;21.63;11.32;;;;;;;9.22;100.00;98883.91;5083844;28;20016;-94
2022/01/04 02:37:52;;;;;;;18.33;10.70;;;;;;;9.19;100.00;98881.28;5081280;28;20044;-95
2022/01/04 02:40:18;;;;;;;;;;;;;;;9.38;100.00;98913.66;5080352;28;20045;-94
2022/01/04 02:42:45;;;;;;;22.73;10.40;;;;;;;9.19;100.00;98881.28;5082821;28;19924;-95
2022/01/04 02:45:11;;;;;;;18.77;10.43;;;;;;;9.19;100.00;98878.63;5080741;28;20052;-94
2022/01/04 02:47:37;;;;;;;20.65;10.30;;;;;;;9.20;100.00;98883.06;5082159;28;20097;-94
2022/01/04 02:50:04;;;;;;;18.20;10.00;;;;;;;9.35;100.00;98907.56;5081173;28;20052;-94
2022/01/04 02:52:34;;;;;;;23.40;10.88;;;;;;;9.17;100.00;98876.94;5081267;28;20040;-93
2022/01/04 02:55:00;;;;;;;28.38;11.65;;;;;;;9.17;100.00;98879.56;5080829;28;20464;-96
2022/01/04 02:57:28;;;;;;;22.02;11.07;;;;;;;9.14;100.00;98877.88;5080052;28;20510;-93
2022/01/04 02:59:54;;;;;;;21.55;11.30;;;;;;;9.24;100.00;98889.19;5082259;28;20048;-94
2022/01/04 03:05:41;;;;;;;19.00;10.93;;;;;;;9.24;100.00;98876.78;5081277;28;20078;-93
2022/01/04 03:08:08;;;;;;;21.55;11.10;;;;;;;9.39;100.00;98904.81;5080807;28;20048;-95
2022/01/04 03:10:35;;;;;;;22.05;10.93;;;;;;;9.44;100.00;98910.88;5081919;28;20045;-94
2022/01/04 03:13:02;;;;;;;19.63;10.98;;;;;;;9.25;100.00;98869.69;5080884;28;20101;-94
2022/01/04 03:15:28;;;;;;;21.77;11.52;;;;;;;9.29;100.00;98875.81;5081168;28;20132;-94
2022/01/04 03:17:54;;;;;;;20.00;10.60;;;;;;;9.34;100.00;98874.81;5082219;28;20075;-93
2022/01/04 03:20:20;;;;;;;19.95;10.63;;;;;;;9.41;100.00;98880.84;5081640;28;20036;-94
2022/01/04 03:22:46;;;;;;;20.13;10.13;;;;;;;9.40;100.00;98879.13;5080755;28;20045;-93
2022/01/04 03:25:13;;;;;;;21.35;11.23;;;;;;;9.30;100.00;98866.94;5081683;28;20047;-94
2022/01/04 03:27:39;;;;;;;19.38;10.93;;;;;;;9.31;100.00;98863.41;5081295;28;20108;-95
2022/01/04 03:33:56;;;;;;;19.42;11.13;;;;;;;9.47;100.00;98880.75;5081875;28;20082;-93
2022/01/04 03:36:24;;;;;;;22.88;10.70;;;;;;;9.30;100.00;98851.03;5081954;28;20041;-95
2022/01/04 03:38:51;;;;;;;;;;;;;;;9.48;100.00;98887.81;5081598;28;20049;-94
2022/01/04 03:41:21;;;;;;;22.20;11.13;;;;;;;9.30;100.00;98848.38;5081078;28;19920;-94
2022/01/04 03:43:47;;;;;;;19.08;11.23;;;;;;;9.46;100.00;98874.56;5080817;28;20040;-93
2022/01/04 03:49:34;;;;;;;20.38;10.35;;;;;;;9.27;100.00;98851.97;5081408;28;20133;-94
2022/01/04 03:52:00;;;;;;;24.80;12.40;;;;;;;9.36;100.00;98856.22;5081758;28;20052;-94
2022/01/04 03:54:26;;;;;;;23.40;11.20;;;;;;;9.35;100.00;98859.78;5081776;28;20048;-96
2022/01/04 03:56:56;;;;;;;23.40;12.48;;;;;;;9.41;100.00;98876.44;5081554;28;20049;-94
2022/01/04 03:59:22;;;;;;;22.15;12.30;;;;;;;9.30;100.00;98851.03;5081786;28;20075;-94
2022/01/04 04:01:49;;;;;;;27.30;13.25;;;;;;;9.28;100.00;98847.53;5082701;28;20041;-94
2022/01/04 04:04:16;;;;;;;24.35;12.35;;;;;;;9.44;100.00;98872.84;5081839;28;20048;-94
2022/01/04 04:06:42;;;;;;;28.35;13.02;;;;;;;9.30;100.00;98840.41;5081643;28;20049;-95
2022/01/04 04:09:08;;;;;;;27.15;12.68;;;;;;;9.27;100.00;98837.84;5080611;28;20063;-95
2022/01/04 04:11:37;;;;;;;23.52;11.55;;;;;;;9.29;100.00;98839.53;5082222;28;20044;-95
2022/01/04 04:14:07;;;;;;;24.30;11.75;;;;;;;9.29;100.00;98833.38;5080861;28;20498;-94
2022/01/04 04:16:33;;;;;;;26.00;12.77;;;;;;;9.26;100.00;98839.63;5082373;28;20059;-95
2022/01/04 04:18:59;;;;;;;33.63;15.48;;;;;;;9.32;100.00;98843.91;5081248;28;20521;-94
2022/01/04 04:21:25;;;;;;;28.63;14.13;;;;;;;9.29;100.00;98828.06;5081178;28;20044;-95
2022/01/04 04:23:51;;;;;;;24.58;12.40;;;;;;;9.38;100.00;98854.41;5081106;28;20044;-93
2022/01/04 04:26:17;;;;;;;25.40;11.40;;;;;;;9.40;100.00;98850.78;5080428;28;20052;-94
2022/01/04 04:28:43;;;;;;;21.90;12.13;;;;;;;9.43;100.00;98847.19;5080885;28;20053;-95
2022/01/04 04:34:35;;;;;;;23.52;12.52;;;;;;;9.31;100.00;98826.25;5080814;28;20086;-94
2022/01/04 04:37:04;;;;;;;26.70;13.18;;;;;;;9.30;100.00;98824.47;5081368;28;20071;-94
2022/01/04 04:39:30;;;;;;;25.30;13.63;;;;;;;9.29;100.00;98826.28;5080430;28;20100;-93
2022/01/04 04:41:57;;;;;;;22.30;12.27;;;;;;;9.27;100.00;98830.72;5081186;28;20049;-96
2022/01/04 04:44:24;;;;;;;29.08;14.38;;;;;;;9.42;100.00;98854.28;5080969;28;20041;-94
2022/01/04 04:50:15;;;;;;;25.38;12.70;;;;;;;9.27;100.00;98827.22;5077031;28;20104;-93
2022/01/04 04:52:41;;;;;;;23.83;13.40;;;;;;;9.36;100.00;98840.28;5080986;28;20056;-95
2022/01/04 04:55:09;;;;;;;23.55;12.98;;;;;;;9.32;100.00;98839.47;5081203;28;20047;-94
2022/01/04 04:57:35;;;;;;;29.00;13.82;;;;;;;9.27;100.00;98830.72;5081776;28;20071;-94
2022/01/04 05:00:04;;;;;;;24.98;13.55;;;;;;;9.39;100.00;98848.16;5081925;28;20032;-93
2022/01/04 05:02:33;;;;;;;26.05;14.10;;;;;;;9.36;100.00;98857.06;5080356;28;20047;-95
2022/01/04 05:04:59;;;;;;;;;;;;;;;9.50;100.00;98863.88;5080784;28;20497;-95
2022/01/04 05:07:26;;;;;;;27.58;14.65;;;;;;;9.50;100.00;98862.13;5081209;28;19983;-95
2022/01/04 05:09:52;;;;;;;24.85;13.30;;;;;;;9.37;100.00;98834.94;5080629;28;20045;-95
2022/01/04 05:12:18;;;;;;;28.85;13.73;;;;;;;9.32;100.00;98833.28;5081905;28;20548;-94
2022/01/04 05:14:47;;;;;;;24.00;13.57;;;;;;;9.29;100.00;98834.22;5081082;28;20052;-93
2022/01/04 05:20:35;;;;;;;26.90;14.13;;;;;;;9.43;100.00;98864.03;5080866;28;20047;-96
2022/01/04 05:23:04;;;;;;;29.92;16.20;;;;;;;9.41;100.00;98862.28;5080357;28;20040;-95
2022/01/04 05:25:29;;;;;;;;;;;;;;;9.53;100.00;98872.66;5080542;28;20040;-95
2022/01/04 05:27:55;;;;;;;24.48;13.00;;;;;;;9.43;100.00;98865.78;5079277;28;19942;-96
2022/01/04 05:34:01;;;;;;;27.15;14.05;;;;;;;9.34;100.00;98840.31;5079996;28;20032;-95
2022/01/04 05:36:27;;;;;;;24.88;13.43;;;;;;;9.37;100.00;98839.41;5081871;28;20131;-95
2022/01/04 05:38:58;;;;;;;22.90;12.82;;;;;;;9.50;100.00;98874.47;5083810;28;20082;-94
2022/01/04 05:41:23;;;;;;;23.88;12.90;;;;;;;9.34;100.00;98844.75;5083559;28;20044;-95
2022/01/04 05:43:49;;;;;;;27.08;13.45;;;;;;;9.45;100.00;98869.28;5085463;28;20051;-94
2022/01/04 05:49:37;;;;;;;26.08;13.63;;;;;;;9.48;100.00;98866.56;5084693;28;20080;-94
2022/01/04 05:52:04;;;;;;;21.75;12.02;;;;;;;9.32;100.00;98839.47;5084336;28;20098;-95
2022/01/04 05:54:33;;;;;;;28.13;13.50;;;;;;;9.34;100.00;98836.78;5083023;28;20051;-94
2022/01/04 05:56:59;;;;;;;25.63;13.85;;;;;;;9.38;100.00;98855.25;5083388;28;20055;-93
2022/01/04 05:59:25;;;;;;;23.90;13.70;;;;;;;9.32;100.00;98838.59;5083846;28;20064;-94
2022/01/04 06:05:14;;;;;;;24.23;12.85;;;;;;;9.33;100.00;98846.53;5082994;28;20032;-94
2022/01/04 06:07:40;;;;;;;26.02;13.02;;;;;;;9.38;100.00;98844.66;5083751;28;20076;-95
2022/01/04 06:10:10;;;;;;;27.58;15.18;;;;;;;9.36;100.00;98838.50;5083735;28;20139;-95
2022/01/04 06:19:18;;;;;;;26.60;13.93;;;;;;;9.39;100.00;98824.28;5117214;28;20060;-93
2022/01/04 06:21:45;;;;;;;20.08;12.10;;;;;;;9.44;100.00;98833.91;5116196;28;20043;-93
2022/01/04 06:24:10;;;;;;;25.17;12.90;;;;;;;9.32;100.00;98823.53;5117042;28;20040;-94
2022/01/04 06:26:39;;;;;;;23.25;13.55;;;;;;;9.46;100.00;98844.50;5115665;28;20050;-93
2022/01/04 06:29:07;;;;;;;25.23;13.23;;;;;;;9.29;100.00;98815.66;5116205;28;20051;-93
2022/01/04 06:34:56;;;;;;;25.48;14.70;;;;;;;9.42;100.00;98830.41;5116674;28;20055;-93
2022/01/04 06:37:23;;;;;;;25.08;14.38;;;;;;;9.41;100.00;98833.09;5116411;28;20104;-93
2022/01/04 06:39:48;;;;;;;28.08;13.70;;;;;;;9.38;100.00;98830.50;5116888;28;20072;-93
2022/01/04 06:42:14;;;;;;;27.63;14.18;;;;;;;9.27;100.00;98808.63;5117638;28;20078;-93
2022/01/04 06:44:43;;;;;;;24.88;14.45;;;;;;;9.28;100.00;98807.72;5117911;28;20044;-93
2022/01/04 06:47:23;;;;;;;30.87;15.83;;;;;;;9.40;100.00;98820.75;5118778;28;20116;-96
2022/01/04 06:49:48;;;;;;;30.27;14.70;;;;;;;9.30;100.00;98813.88;5119185;28;20047;-96
2022/01/04 06:52:19;;;;;;;24.50;14.43;;;;;;;9.39;100.00;98833.13;5118668;28;20092;-95
2022/01/04 06:54:45;;;;;;;26.75;16.15;;;;;;;9.45;100.00;98835.66;5118457;28;20044;-95
2022/01/04 06:57:11;;;;;;;28.92;16.30;;;;;;;9.25;100.00;98798.91;5118409;28;20044;-96
2022/01/04 06:59:37;;;;;;;30.52;16.73;;;;;;;9.31;100.00;98808.53;5117893;28;20047;-96
2022/01/04 07:02:03;;;;;;;31.80;17.02;;;;;;;9.41;100.00;98820.72;5117455;28;20100;-96
2022/01/04 07:04:33;;;;;;;26.33;15.00;;;;;;;9.36;100.00;98808.44;5118012;28;20040;-96
2022/01/04 07:06:59;;;;;;;28.50;14.75;;;;;;;9.39;100.00;98806.59;5117827;28;20047;-94
2022/01/04 07:09:28;;;;;;;25.10;13.73;;;;;;;9.47;100.00;98825.00;5117851;28;20036;-95
2022/01/04 07:11:55;;;;;;;32.78;14.75;;;;;;;9.57;100.00;98834.50;5117841;28;20058;-93
2022/01/04 07:14:20;;;;;;;29.48;14.23;;;;;;;9.43;100.00;98800.31;5116981;28;20110;-93
2022/01/04 07:17:20;;;;;;;25.10;13.82;;;;;;;9.67;100.00;98832.50;5117750;28;20501;-95
2022/01/04 07:19:47;;;;;;;26.58;14.57;;;;;;;9.52;100.00;98799.25;5117896;28;20040;-95
2022/01/04 07:22:13;;;;;;;26.67;15.20;;;;;;;9.53;100.00;98793.00;5117861;28;20040;-95
2022/01/04 07:24:41;;;;;;;32.58;16.70;;;;;;;9.60;100.00;98802.56;5116096;28;20100;-95
2022/01/04 07:27:09;;;;;;;26.98;15.38;;;;;;;9.75;100.00;98819.06;5104563;28;20107;-95
2022/01/04 07:29:38;;;;;;;29.90;15.45;;;;;;;9.61;100.00;98804.34;5103833;28;20055;-96
2022/01/04 07:32:05;;;;;;;28.08;14.10;;;;;;;9.64;100.00;98803.38;5104190;28;20056;-95
2022/01/04 07:34:35;;;;;;;23.95;14.50;;;;;;;9.60;100.00;98799.91;5103685;28;20089;-95
2022/01/04 07:37:02;;;;;;;28.10;13.65;;;;;;;9.61;100.00;98795.50;5102741;28;20156;-94
2022/01/04 07:39:28;;;;;;;27.30;14.90;;;;;;;9.61;100.00;98799.03;5103838;28;20051;-92
2022/01/04 07:41:57;;;;;;;27.08;13.85;;;;;;;9.68;100.00;98809.50;5103261;28;20044;-96
2022/01/04 07:44:23;;;;;;;31.77;16.55;;;;;;;9.80;100.00;98826.03;5103003;28;20040;-94
2022/01/04 07:47:20;;;;;;;29.50;17.30;;;;;;;9.85;100.00;98820.63;5104460;28;20135;-96
2022/01/04 07:49:46;;;;;;;31.65;16.65;;;;;;;9.76;100.00;98784.53;5103803;28;20086;-95
2022/01/04 07:52:12;;;;;;;29.90;15.27;;;;;;;9.86;100.00;98794.00;5103631;28;20105;-95
2022/01/04 07:54:41;;;;;;;28.00;14.85;;;;;;;9.87;100.00;98784.28;5104543;28;20051;-94
2022/01/04 07:57:08;;;;;;;31.65;16.42;;;;;;;10.11;100.00;98819.13;5103555;28;20044;-95
2022/01/04 07:59:35;;;;;;;29.05;14.63;;;;;;;10.02;100.00;98789.22;5103967;28;20058;-95
2022/01/04 08:02:01;;;;;;;23.27;13.38;;;;;;;10.14;100.00;98801.31;5101925;28;20048;-96
2022/01/04 08:04:29;;;;;;;23.10;12.75;;;;;;;10.04;100.00;98787.41;5102818;28;20061;-94
2022/01/04 08:06:54;;;;;;;27.95;15.10;;;;;;;10.08;100.00;98799.69;5101980;28;20063;-94
2022/01/04 08:09:21;;;;;;;30.60;16.10;;;;;;;10.05;100.00;98790.91;5101562;28;20040;-95
2022/01/04 08:11:47;;;;;;;35.08;17.50;;;;;;;10.13;100.00;98811.97;5100275;28;20065;-95
2022/01/04 08:14:15;;;;;;;31.42;17.15;;;;;;;10.01;100.00;98792.75;5102115;28;20077;-95
2022/01/04 08:17:21;;;;;;;32.00;15.45;;;;;;;10.20;100.00;98824.22;5103619;28;20040;-96
2022/01/04 08:19:47;;;;;;;28.33;15.02;;;;;;;10.00;100.00;98806.97;5101417;28;20028;-96
2022/01/04 08:22:13;;;;;;;31.80;15.20;;;;;;;10.00;100.00;98800.78;5101927;28;20055;-96
2022/01/04 08:24:39;;;;;;;30.38;16.88;;;;;;;10.07;100.00;98813.00;5101128;28;20097;-94
2022/01/04 08:27:05;;;;;;;36.13;17.17;;;;;;;10.06;100.00;98803.28;5100395;28;20048;-95
2022/01/04 08:29:32;;;;;;;28.88;15.77;;;;;;;10.16;100.00;98807.47;5100943;28;20145;-95
2022/01/04 08:31:59;;;;;;;29.58;16.45;;;;;;;10.18;100.00;98802.13;5101264;28;20094;-95
2022/01/04 08:34:26;;;;;;;29.30;15.60;;;;;;;10.24;100.00;98797.53;5101513;28;20040;-95
2022/01/04 08:36:52;;;;;;;29.33;16.13;;;;;;;10.26;100.00;98794.81;5103387;28;20032;-96
2022/01/04 08:39:18;;;;;;;29.13;16.52;;;;;;;10.45;100.00;98825.38;5104423;28;20055;-94
2022/01/04 08:41:46;;;;;;;29.67;16.88;;;;;;;10.51;100.00;98819.00;5102872;28;20040;-95
2022/01/04 08:44:12;;;;;;;26.58;15.30;;;;;;;10.38;100.00;98802.50;5102972;28;20039;-95
2022/01/04 08:47:21;;;;;;;32.72;16.17;;;;;;;10.56;100.00;98821.53;5103014;28;20140;-95
2022/01/04 08:49:51;;;;;;;25.38;15.82;;;;;;;10.38;100.00;98798.97;5102139;28;20024;-95
2022/01/04 08:52:17;;;;;;;34.63;16.67;;;;;;;10.45;100.00;98813.84;5102477;28;20080;-94
2022/01/04 08:54:43;;;;;;;33.08;17.45;;;;;;;10.38;100.00;98786.56;5101136;28;20083;-94
2022/01/04 08:57:08;;;;;;;27.30;14.63;;;;;;;10.51;100.00;98810.16;5101953;28;20047;-93
2022/01/04 08:59:35;;;;;;;26.90;13.75;;;;;;;10.52;100.00;98801.25;5102514;28;20040;-93
2022/01/04 09:05:27;;;;;;;499.60;173.80;;;;;;;10.47;100.00;98796.97;5105214;28;20038;-94
2022/01/04 09:07:53;;;;;;;176.63;119.05;;;;;;;10.45;100.00;98790.81;5105480;28;20040;-94
2022/01/04 09:10:20;;;;;;;43.58;32.60;;;;;;;10.52;100.00;98798.59;5102254;28;20051;-96
2022/01/04 09:12:57;;;;;;;64.35;39.90;;;;;;;10.75;100.00;98804.19;5103563;28;20040;-95
2022/01/04 09:21:29;;;;;;;59.33;29.27;;;;;;;10.96;100.00;98824.00;5096736;27;20382;-94
2022/01/04 09:23:56;;;;;;;62.78;30.70;;;;;;;10.83;100.00;98799.53;5094999;28;20048;-93
2022/01/04 09:26:27;;;;;;;40.92;23.30;;;;;;;10.87;100.00;98813.63;5095970;28;20056;-92
2022/01/04 09:28:54;;;;;;;29.77;16.23;;;;;;;10.90;100.00;98810.88;5096404;28;20044;-94
2022/01/04 09:34:46;;;;;;;23.85;13.48;;;;;;;10.87;100.00;98789.69;5097412;28;20138;-93
2022/01/04 09:37:15;;;;;;;;;;;;;;;11.03;100.00;98811.41;5099219;28;20048;-94
2022/01/04 09:39:41;;;;;;;22.25;12.15;;;;;;;10.89;100.00;98783.41;5096263;28;19927;-95
2022/01/04 09:42:08;;;;;;;18.45;11.88;;;;;;;10.95;100.00;98776.16;5098009;28;20131;-94
2022/01/04 09:44:38;;;;;;;20.63;12.52;;;;;;;11.05;100.00;98797.13;5095861;28;20405;-95
2022/01/04 09:50:26;;;;;;;23.52;11.80;;;;;;;10.98;100.00;98776.94;5096247;28;20039;-94
2022/01/04 09:52:55;;;;;;;24.38;12.77;;;;;;;11.03;100.00;98771.50;5096660;28;20131;-93
2022/01/04 09:55:22;;;;;;;19.38;11.90;;;;;;;11.17;100.00;98787.03;5097238;28;20040;-94
2022/01/04 09:57:49;;;;;;;20.20;10.95;;;;;;;11.06;100.00;98768.72;5096467;28;20051;-94
2022/01/04 10:07:01;;;;;;;21.52;10.93;;;;;;;11.07;100.00;98771.34;5099087;28;20095;-93
2022/01/04 10:09:39;;;;;;;;;;;;;;;11.11;100.00;98793.44;5099621;28;20052;-92
2022/01/04 10:12:07;;;;;;;25.53;12.27;;;;;;;11.04;100.00;98792.75;5097484;28;19966;-94
2022/01/04 10:14:37;;;;;;;24.63;11.95;;;;;;;10.98;100.00;98792.06;5097934;28;20052;-94
2022/01/04 10:20:25;;;;;;;21.20;11.20;;;;;;;10.93;100.00;98757.59;5075941;28;20068;-93
2022/01/04 10:22:51;;;;;;;22.08;11.43;;;;;;;11.02;100.00;98757.31;5076591;28;20044;-93
2022/01/04 10:25:20;;;;;;;18.00;11.25;;;;;;;10.92;100.00;98744.34;5095438;28;20052;-93
2022/01/04 10:27:48;;;;;;;20.55;11.98;;;;;;;11.11;100.00;98766.84;5098626;28;20094;-95
2022/01/04 10:36:58;;;;;;;17.10;10.80;;;;;;;10.96;100.00;98724.72;5084849;28;20032;-93
2022/01/04 10:39:25;;;;;;;20.30;11.13;;;;;;;11.00;100.00;98732.56;5083430;28;20037;-94
2022/01/04 10:42:06;;;;;;;19.17;11.40;;;;;;;10.98;100.00;98734.38;5081757;28;20040;-93
2022/01/04 10:44:32;;;;;;;18.88;11.32;;;;;;;10.93;100.00;98735.41;5083396;28;20044;-93
2022/01/04 10:50:32;;;;;;;20.40;10.20;;;;;;;10.95;100.00;98728.25;5079796;28;20047;-93
2022/01/04 10:52:59;;;;;;;19.08;10.35;;;;;;;10.83;100.00;98717.06;5084695;28;20074;-94
2022/01/04 10:55:32;;;;;;;17.77;11.07;;;;;;;10.92;100.00;98737.22;5086408;28;20490;-94
2022/01/04 10:58:00;;;;;;;18.80;10.52;;;;;;;11.04;100.00;98730.69;5086164;28;20118;-92
2022/01/04 11:04:24;;;;;;;18.17;10.73;;;;;;;11.05;100.00;98733.28;5086831;28;20040;-94
2022/01/04 11:06:59;;;;;;;19.75;10.98;;;;;;;10.86;100.00;98703.69;5086064;28;20087;-93
2022/01/04 11:09:30;;;;;;;22.90;11.90;;;;;;;10.87;100.00;98697.44;5084655;28;20044;-95
2022/01/04 11:11:56;;;;;;;22.92;12.52;;;;;;;10.82;100.00;98680.75;5084235;28;20086;-92
2022/01/04 11:14:28;;;;;;;20.08;11.98;;;;;;;10.98;100.00;98713.09;5084520;28;20064;-93
2022/01/04 11:20:17;;;;;;;19.02;11.18;;;;;;;10.90;100.00;98678.72;5058325;28;20131;-94
2022/01/04 11:22:46;;;;;;;16.35;11.10;;;;;;;10.95;100.00;98683.94;5084274;28;20041;-94
2022/01/04 11:25:15;;;;;;;21.77;11.40;;;;;;;10.87;100.00;98668.19;5083674;28;20051;-94
2022/01/04 11:27:42;;;;;;;19.70;11.43;;;;;;;10.92;100.00;98675.16;5083985;28;20104;-93
2022/01/04 11:36:54;;;;;;;18.77;10.95;;;;;;;10.94;100.00;98665.34;5083702;28;20092;-94
2022/01/04 11:39:31;;;;;;;19.67;10.98;;;;;;;10.90;100.00;98649.47;5083504;28;20040;-93
2022/01/04 11:41:59;;;;;;;17.70;11.05;;;;;;;11.00;100.00;98674.00;5081482;28;20094;-94
2022/01/04 11:44:27;;;;;;;22.13;11.18;;;;;;;10.98;100.00;98661.69;5083309;28;20048;-93
2022/01/04 11:47:31;;;;;;;23.27;12.18;;;;;;;11.04;100.00;98674.81;5084456;28;20040;-95
2022/01/04 11:50:09;;;;;;;22.45;12.25;;;;;;;10.94;100.00;98646.72;5082827;28;20047;-94
2022/01/04 11:52:49;;;;;;;23.80;12.50;;;;;;;11.13;100.00;98661.19;5083636;28;20048;-94
2022/01/04 11:55:18;;;;;;;21.80;12.45;;;;;;;11.16;100.00;98666.41;5083349;28;20108;-94
2022/01/04 11:57:43;;;;;;;20.85;11.32;;;;;;;10.99;100.00;98640.31;5082099;28;20424;-94
2022/01/04 12:04:27;;;;;;;19.40;12.35;;;;;;;11.20;100.00;98651.22;5082797;28;20036;-95
2022/01/04 12:06:54;;;;;;;22.05;12.32;;;;;;;10.96;100.00;98626.25;5067037;28;20024;-93
2022/01/04 12:09:29;;;;;;;28.52;14.70;;;;;;;10.85;100.00;98616.81;5079853;28;20044;-95
2022/01/04 12:11:59;;;;;;;24.60;14.27;;;;;;;10.89;100.00;98625.59;5080486;28;20119;-95
2022/01/04 12:14:27;;;;;;;26.00;14.43;;;;;;;10.78;100.00;98609.94;5080093;28;20513;-93
2022/01/04 12:20:46;;;;;;;28.67;14.57;;;;;;;10.81;100.00;98587.69;5080666;28;20124;-96
2022/01/04 12:23:46;;;;;;;24.63;14.73;;;;;;;10.77;100.00;98586.91;5081348;28;20079;-94
2022/01/04 12:26:28;;;;;;;27.80;15.68;;;;;;;10.72;100.00;98583.53;5081500;28;20040;-94
2022/01/04 12:29:16;;;;;;;26.70;14.70;;;;;;;10.90;100.00;98609.56;5080957;28;20063;-94
2022/01/04 12:35:08;;;;;;;26.83;15.00;;;;;;;10.67;100.00;98574.84;5080664;28;20142;-94
2022/01/04 12:37:37;;;;;;;28.67;15.90;;;;;;;10.78;100.00;98588.66;5081482;28;20076;-94
2022/01/04 12:40:04;;;;;;;29.77;17.05;;;;;;;10.60;100.00;98560.81;5080961;28;20037;-94
2022/01/04 12:42:32;;;;;;;30.92;19.48;;;;;;;10.65;100.00;98571.34;5080486;28;20057;-94
2022/01/04 12:44:59;;;;;;;27.42;15.73;;;;;;;10.56;100.00;98561.88;5079712;28;20056;-94
2022/01/04 12:50:47;;;;;;;21.80;13.15;;;;;;;10.60;100.00;98563.50;5073047;28;20071;-94
2022/01/04 12:53:13;;;;;;;27.27;13.85;;;;;;;10.56;100.00;98555.66;5080108;28;20048;-93
2022/01/04 12:55:39;;;;;;;23.98;13.98;;;;;;;10.67;100.00;98578.34;5081003;28;20044;-93
2022/01/04 12:58:06;;;;;;;31.55;19.83;;;;;;;10.53;100.00;98561.94;5078176;28;20048;-92
2022/01/04 13:04:33;;;;;;;25.17;14.65;;;;;;;10.71;100.00;98567.63;5088144;28;20071;-95
2022/01/04 13:07:00;;;;;;;23.55;14.15;;;;;;;10.51;100.00;98541.63;5083994;28;20127;-94
2022/01/04 13:09:30;;;;;;;25.70;14.52;;;;;;;10.54;100.00;98538.88;5083127;28;20044;-95
2022/01/04 13:11:59;;;;;;;25.95;14.40;;;;;;;10.57;100.00;98552.09;5083428;28;20382;-93
2022/01/04 13:14:28;;;;;;;31.25;15.13;;;;;;;10.56;100.00;98545.03;5067868;28;20048;-94
2022/01/04 13:27:47;;;;;;;31.98;16.20;;;;;;;10.55;100.00;98530.88;5078273;28;20051;-93
2022/01/04 13:34:31;;;;;;;27.67;14.60;;;;;;;10.57;100.00;98560.94;5082539;28;20103;-94
2022/01/04 13:37:03;;;;;;;35.15;16.65;;;;;;;10.40;100.00;98529.53;5081907;28;20047;-92
2022/01/04 13:39:29;;;;;;;24.85;14.20;;;;;;;10.39;100.00;98530.47;5083638;28;20048;-94
2022/01/04 13:41:55;;;;;;;25.25;13.98;;;;;;;10.39;100.00;98537.59;5083309;28;20135;-93
2022/01/04 13:44:21;;;;;;;30.25;15.10;;;;;;;10.33;100.00;98535.09;5082938;28;20136;-92
2022/01/04 13:50:16;;;;;;;21.48;13.90;;;;;;;10.37;100.00;98545.59;5082916;28;20028;-95
2022/01/04 13:52:54;;;;;;;19.25;12.50;;;;;;;10.42;100.00;98546.31;5083004;28;20063;-92
2022/01/04 13:55:20;;;;;;;19.30;12.35;;;;;;;10.44;100.00;98551.59;5081353;28;20095;-92
2022/01/04 13:57:46;;;;;;;22.58;13.15;;;;;;;10.33;100.00;98532.44;5082208;28;20521;-94
2022/01/04 14:06:57;;;;;;;23.13;12.63;;;;;;;10.22;100.00;98516.78;5068178;28;20471;-96
2022/01/04 14:09:33;;;;;;;21.38;12.88;;;;;;;10.26;100.00;98521.97;5089109;28;20048;-93
2022/01/04 14:12:04;;;;;;;23.73;12.80;;;;;;;10.22;100.00;98525.63;5090272;28;20104;-95